Time,TemperatureF,DewpointF,PressureIn,WindDirection,WindDirectionDegrees,WindSpeedMPH,WindSpeedGustMPH,Humidity,HourlyPrecipIn,Conditions,Clouds,dailyrainin,SoftwareType,DateUTC
2013-04-16 00:00:00,56.5,54.9,30.20,ENE,64,0.0,2.0,94,0.00,,,0.00,meteohub,2013-04-16 04:00:00,
2013-04-16 00:01:00,56.5,54.9,30.20,NNE,31,2.0,2.0,94,0.00,,,0.00,meteohub,2013-04-16 04:01:00,
2013-04-16 00:06:00,56.5,54.9,30.20,NNE,30,0.0,3.0,94,0.00,,,0.00,meteohub,2013-04-16 04:06:00,
2013-04-16 00:11:00,56.5,54.9,30.20,NE,39,0.0,3.0,94,0.00,,,0.00,meteohub,2013-04-16 04:11:00,
2013-04-16 00:16:00,56.3,54.7,30.20,NE,40,0.0,3.0,94,0.00,,,0.00,meteohub,2013-04-16 04:16:00,
2013-04-16 00:21:00,56.3,54.7,30.20,NE,39,0.0,0.0,94,0.00,,,0.00,meteohub,2013-04-16 04:21:00,
2013-04-16 00:26:00,56.1,54.5,30.20,NE,39,0.0,0.0,94,0.00,,,0.00,meteohub,2013-04-16 04:26:00,
2013-04-16 00:31:00,56.1,54.7,30.20,NNE,24,0.0,0.0,95,0.00,,,0.00,meteohub,2013-04-16 04:31:00,
2013-04-16 00:36:00,56.1,54.7,30.20,NE,55,2.0,2.0,95,0.00,,,0.00,meteohub,2013-04-16 04:36:00,
2013-04-16 00:41:00,56.1,54.7,30.20,East,84,0.0,3.0,95,0.00,,,0.00,meteohub,2013-04-16 04:41:00,
2013-04-16 00:46:00,56.1,54.7,30.20,ENE,69,0.0,3.0,95,0.00,,,0.00,meteohub,2013-04-16 04:46:00,
2013-04-16 00:51:00,56.1,54.7,30.20,ENE,69,0.0,3.0,95,0.00,,,0.00,meteohub,2013-04-16 04:51:00,
2013-04-16 00:56:00,56.1,54.7,30.20,ENE,69,1.0,2.0,95,0.00,,,0.00,meteohub,2013-04-16 04:56:00,
2013-04-16 01:01:00,56.1,54.7,30.20,ENE,70,0.0,2.0,95,0.00,,,0.00,meteohub,2013-04-16 05:01:00,
2013-04-16 01:06:00,56.1,54.7,30.20,ENE,70,0.0,2.0,95,0.00,,,0.00,meteohub,2013-04-16 05:06:00,
2013-04-16 01:11:00,56.1,54.7,30.20,ENE,70,0.0,1.0,95,0.00,,,0.00,meteohub,2013-04-16 05:11:00,
2013-04-16 01:16:00,56.1,54.7,30.19,ENE,70,0.0,0.0,95,0.00,,,0.00,meteohub,2013-04-16 05:16:00,
2013-04-16 01:21:00,55.9,54.5,30.19,ENE,71,0.0,0.0,95,0.00,,,0.00,meteohub,2013-04-16 05:21:00,
2013-04-16 01:26:00,55.9,54.5,30.19,ENE,70,0.0,0.0,95,0.00,,,0.00,meteohub,2013-04-16 05:26:00,
2013-04-16 01:31:00,55.9,54.5,30.19,ENE,70,0.0,0.0,95,0.00,,,0.00,meteohub,2013-04-16 05:31:00,
2013-04-16 01:36:00,55.9,54.5,30.19,ENE,71,0.0,0.0,95,0.00,,,0.00,meteohub,2013-04-16 05:36:00,
2013-04-16 01:41:00,55.8,54.3,30.20,ENE,71,0.0,0.0,95,0.00,,,0.00,meteohub,2013-04-16 05:41:00,
2013-04-16 01:46:00,55.8,54.3,30.20,ENE,72,0.0,1.0,95,0.00,,,0.00,meteohub,2013-04-16 05:46:00,
2013-04-16 01:51:00,55.8,54.7,30.19,ENE,75,0.0,1.0,96,0.00,,,0.00,meteohub,2013-04-16 05:51:00,
2013-04-16 01:56:00,55.8,54.7,30.19,ESE,105,0.0,1.0,96,0.00,,,0.00,meteohub,2013-04-16 05:56:00,
2013-04-16 02:01:00,55.8,54.7,30.19,ESE,106,0.0,1.0,96,0.00,,,0.00,meteohub,2013-04-16 06:01:00,
2013-04-16 02:06:00,55.8,54.7,30.19,East,101,0.0,1.0,96,0.00,,,0.00,meteohub,2013-04-16 06:06:00,
2013-04-16 02:11:00,55.6,54.5,30.20,ESE,103,0.0,1.0,96,0.00,,,0.00,meteohub,2013-04-16 06:11:00,
2013-04-16 02:16:00,55.6,54.5,30.20,ESE,103,0.0,0.0,96,0.00,,,0.00,meteohub,2013-04-16 06:16:00,
2013-04-16 02:21:00,55.6,54.5,30.20,ESE,103,0.0,0.0,96,0.00,,,0.00,meteohub,2013-04-16 06:21:00,
2013-04-16 02:27:00,55.6,54.5,30.20,ESE,103,0.0,0.0,96,0.00,,,0.00,meteohub,2013-04-16 06:27:00,
2013-04-16 02:32:00,55.6,54.5,30.20,ESE,103,0.0,0.0,96,0.00,,,0.00,meteohub,2013-04-16 06:32:00,
2013-04-16 02:37:00,55.6,54.5,30.20,ESE,103,0.0,0.0,96,0.00,,,0.00,meteohub,2013-04-16 06:37:00,
2013-04-16 02:42:00,55.6,54.5,30.20,East,101,0.0,0.0,96,0.00,,,0.00,meteohub,2013-04-16 06:42:00,
2013-04-16 02:47:00,54.7,54.7,30.20,East,101,0.0,0.0,100,0.00,,,0.00,meteohub,2013-04-16 06:47:00,
2013-04-16 02:52:00,54.7,54.7,30.20,East,101,0.0,0.0,100,0.00,,,0.00,meteohub,2013-04-16 06:52:00,
2013-04-16 02:57:00,54.7,54.7,30.20,North,-999,-999.0,0.0,100,0.00,,,0.00,meteohub,2013-04-16 06:57:00,
2013-04-16 08:36:00,56.5,55.9,30.25,North,-999,-999.0,-999.0,98,-99.99,,,0.00,meteohub,2013-04-16 12:36:00,
2013-04-16 08:41:00,56.3,55.8,30.25,North,-999,-999.0,-999.0,98,0.00,,,0.00,meteohub,2013-04-16 12:41:00,
2013-04-16 08:46:00,56.1,55.6,30.25,SSE,153,0.0,1.0,98,0.00,,,0.00,meteohub,2013-04-16 12:46:00,
2013-04-16 08:51:00,56.1,55.6,30.25,SSW,197,2.0,4.0,98,0.00,,,0.00,meteohub,2013-04-16 12:51:00,
2013-04-16 08:56:00,56.3,55.8,30.25,SSW,195,2.0,4.0,98,0.00,,,0.00,meteohub,2013-04-16 12:56:00,
2013-04-16 09:01:00,56.5,56.1,30.25,South,187,0.0,3.0,99,0.00,,,0.00,meteohub,2013-04-16 13:01:00,
2013-04-16 09:06:00,56.7,56.3,30.26,South,180,1.0,3.0,99,0.00,,,0.00,meteohub,2013-04-16 13:06:00,
2013-04-16 09:12:00,56.7,56.1,30.25,South,177,0.0,3.0,98,0.00,,,0.00,meteohub,2013-04-16 13:12:00,
2013-04-16 09:17:00,56.7,56.1,30.26,South,181,0.0,3.0,98,0.00,,,0.00,meteohub,2013-04-16 13:17:00,
2013-04-16 09:22:00,56.8,56.3,30.26,South,183,0.0,3.0,98,0.00,,,0.00,meteohub,2013-04-16 13:22:00,
2013-04-16 09:27:00,57.0,56.5,30.26,South,177,0.0,3.0,98,0.00,,,0.00,meteohub,2013-04-16 13:27:00,
2013-04-16 09:32:00,57.4,56.8,30.26,South,191,1.0,4.0,98,0.00,,,0.00,meteohub,2013-04-16 13:32:00,
2013-04-16 09:37:00,57.6,56.7,30.26,SE,136,1.0,4.0,97,0.00,,,0.00,meteohub,2013-04-16 13:37:00,
2013-04-16 09:42:00,57.9,56.8,30.26,South,184,0.0,4.0,96,0.00,,,0.00,meteohub,2013-04-16 13:42:00,
2013-04-16 09:47:00,58.6,57.2,30.26,South,186,0.0,4.0,95,0.00,,,0.00,meteohub,2013-04-16 13:47:00,
2013-04-16 09:52:00,59.2,57.4,30.26,SSE,156,0.0,4.0,94,0.00,,,0.00,meteohub,2013-04-16 13:52:00,
2013-04-16 09:57:00,60.3,58.3,30.26,SSE,148,0.0,2.0,93,0.00,,,0.00,meteohub,2013-04-16 13:57:00,
2013-04-16 10:02:00,61.5,58.6,30.26,SE,126,1.0,2.0,90,0.00,,,0.00,meteohub,2013-04-16 14:02:00,
2013-04-16 10:07:00,61.3,57.7,30.26,SSE,156,1.0,3.0,88,0.00,,,0.00,meteohub,2013-04-16 14:07:00,
2013-04-16 10:12:00,62.1,58.5,30.26,SE,138,0.0,6.0,88,0.00,,,0.00,meteohub,2013-04-16 14:12:00,
2013-04-16 10:17:00,63.1,58.8,30.26,SSW,203,2.0,6.0,86,0.00,,,0.00,meteohub,2013-04-16 14:17:00,
2013-04-16 10:22:00,63.7,58.5,30.26,South,190,4.0,5.0,83,0.00,,,0.00,meteohub,2013-04-16 14:22:00,
2013-04-16 10:27:00,64.0,58.1,30.26,ESE,108,6.0,6.0,81,0.00,,,0.00,meteohub,2013-04-16 14:27:00,
2013-04-16 10:31:00,64.8,58.8,30.26,WNW,295,1.0,7.0,81,0.00,,,0.00,meteohub,2013-04-16 14:31:00,
2013-04-16 10:36:00,65.7,59.0,30.26,NNE,18,1.0,7.0,79,0.00,,,0.00,meteohub,2013-04-16 14:36:00,
2013-04-16 10:42:00,66.7,58.6,30.26,South,177,3.0,7.0,75,0.00,,,0.00,meteohub,2013-04-16 14:42:00,
2013-04-16 10:47:00,66.0,58.3,30.27,NW,307,2.0,5.0,76,0.00,,,0.00,meteohub,2013-04-16 14:47:00,
2013-04-16 10:52:00,65.3,57.6,30.27,East,98,1.0,8.0,76,0.00,,,0.00,meteohub,2013-04-16 14:52:00,
2013-04-16 10:57:00,66.0,57.9,30.27,SW,217,3.0,8.0,75,0.00,,,0.00,meteohub,2013-04-16 14:57:00,
2013-04-16 11:02:00,66.7,57.7,30.27,ENE,71,1.0,6.0,73,0.00,,,0.00,meteohub,2013-04-16 15:02:00,
2013-04-16 11:07:00,67.3,57.9,30.27,ESE,108,0.0,5.0,72,0.00,,,0.00,meteohub,2013-04-16 15:07:00,
2013-04-16 11:12:00,66.6,56.5,30.27,West,274,4.0,7.0,70,0.00,,,0.00,meteohub,2013-04-16 15:12:00,
2013-04-16 11:17:00,65.7,57.2,30.27,NNW,340,0.0,8.0,74,0.00,,,0.00,meteohub,2013-04-16 15:17:00,
2013-04-16 11:22:00,66.6,58.1,30.27,WSW,250,4.0,8.0,74,0.00,,,0.00,meteohub,2013-04-16 15:22:00,
2013-04-16 11:27:00,66.9,56.8,30.27,South,180,4.0,8.0,70,0.00,,,0.00,meteohub,2013-04-16 15:27:00,
2013-04-16 11:32:00,68.4,57.7,30.26,SSW,193,2.0,8.0,69,0.00,,,0.00,meteohub,2013-04-16 15:32:00,
2013-04-16 11:37:00,68.2,57.6,30.26,ENE,65,0.0,8.0,69,0.00,,,0.00,meteohub,2013-04-16 15:37:00,
2013-04-16 11:42:00,68.2,56.8,30.26,SSE,150,5.0,9.0,67,0.00,,,0.00,meteohub,2013-04-16 15:42:00,
2013-04-16 11:47:00,68.7,57.4,30.26,ENE,72,1.0,9.0,67,0.00,,,0.00,meteohub,2013-04-16 15:47:00,
2013-04-16 11:52:00,69.1,56.8,30.26,NNE,13,0.0,9.0,65,0.00,,,0.00,meteohub,2013-04-16 15:52:00,
2013-04-16 11:57:00,69.1,56.8,30.26,East,93,2.0,11.0,65,0.00,,,0.00,meteohub,2013-04-16 15:57:00,
2013-04-16 12:02:00,69.3,57.4,30.25,East,96,0.0,11.0,66,0.00,,,0.00,meteohub,2013-04-16 16:02:00,
2013-04-16 12:07:00,70.5,57.4,30.25,SSE,148,4.0,10.0,63,0.00,,,0.00,meteohub,2013-04-16 16:07:00,
2013-04-16 12:12:00,70.5,57.4,30.25,SSW,203,1.0,10.0,63,0.00,,,0.00,meteohub,2013-04-16 16:12:00,
2013-04-16 12:17:00,70.3,58.5,30.25,South,169,4.0,7.0,66,0.00,,,0.00,meteohub,2013-04-16 16:17:00,
2013-04-16 12:22:00,70.7,57.6,30.25,ESE,103,5.0,10.0,63,0.00,,,0.00,meteohub,2013-04-16 16:22:00,
2013-04-16 12:27:00,70.2,57.0,30.25,NNE,13,0.0,10.0,63,0.00,,,0.00,meteohub,2013-04-16 16:27:00,
2013-04-16 12:32:00,70.7,57.0,30.25,SSE,153,6.0,10.0,62,0.00,,,0.00,meteohub,2013-04-16 16:32:00,
2013-04-16 12:37:00,70.3,56.7,30.25,SSE,156,3.0,10.0,62,0.00,,,0.00,meteohub,2013-04-16 16:37:00,
2013-04-16 12:42:00,71.2,57.6,30.24,SSE,155,1.0,9.0,62,0.00,,,0.00,meteohub,2013-04-16 16:42:00,
2013-04-16 12:47:00,71.8,58.1,30.24,SE,134,4.0,9.0,62,0.00,,,0.00,meteohub,2013-04-16 16:47:00,
2013-04-16 12:52:00,72.0,57.4,30.24,SSE,159,4.0,7.0,60,0.00,,,0.00,meteohub,2013-04-16 16:52:00,
2013-04-16 12:57:00,70.9,57.2,30.24,East,89,2.0,9.0,62,0.00,,,0.00,meteohub,2013-04-16 16:57:00,
2013-04-16 13:02:00,71.2,56.7,30.24,SSW,193,4.0,9.0,60,0.00,,,0.00,meteohub,2013-04-16 17:02:00,
2013-04-16 13:07:00,71.8,57.6,30.23,East,91,0.0,9.0,61,0.00,,,0.00,meteohub,2013-04-16 17:07:00,
2013-04-16 13:12:00,71.6,57.0,30.23,East,98,5.0,8.0,60,0.00,,,0.00,meteohub,2013-04-16 17:12:00,
2013-04-16 13:17:00,70.7,57.6,30.23,SSE,152,6.0,8.0,63,0.00,,,0.00,meteohub,2013-04-16 17:17:00,
2013-04-16 13:22:00,70.0,56.8,30.23,SSE,147,2.0,9.0,63,0.00,,,0.00,meteohub,2013-04-16 17:22:00,
2013-04-16 13:27:00,69.6,56.8,30.23,East,85,3.0,9.0,64,0.00,,,0.00,meteohub,2013-04-16 17:27:00,
2013-04-16 13:32:00,70.5,56.8,30.23,WSW,238,4.0,9.0,62,0.00,,,0.00,meteohub,2013-04-16 17:32:00,
2013-04-16 13:37:00,70.7,57.0,30.22,SSE,167,5.0,9.0,62,0.00,,,0.00,meteohub,2013-04-16 17:37:00,
2013-04-16 13:42:00,70.7,57.0,30.22,ESE,120,4.0,9.0,62,0.00,,,0.00,meteohub,2013-04-16 17:42:00,
2013-04-16 13:47:00,70.7,57.9,30.22,ESE,110,2.0,9.0,64,0.00,,,0.00,meteohub,2013-04-16 17:47:00,
2013-04-16 13:52:00,71.4,58.1,30.22,East,98,9.0,12.0,63,0.00,,,0.00,meteohub,2013-04-16 17:52:00,
2013-04-16 13:57:00,72.0,59.2,30.22,East,87,4.0,12.0,64,0.00,,,0.00,meteohub,2013-04-16 17:57:00,
2013-04-16 14:02:00,71.6,58.8,30.22,ESE,115,3.0,12.0,64,0.00,,,0.00,meteohub,2013-04-16 18:02:00,
2013-04-16 14:08:00,72.0,59.2,30.21,SSE,153,4.0,9.0,64,0.00,,,0.00,meteohub,2013-04-16 18:08:00,
2013-04-16 14:13:00,71.2,58.8,30.22,SE,128,2.0,8.0,65,0.00,,,0.00,meteohub,2013-04-16 18:13:00,
2013-04-16 14:18:00,70.5,59.4,30.22,SE,129,4.0,8.0,68,0.00,,,0.00,meteohub,2013-04-16 18:18:00,
2013-04-16 14:23:00,71.8,60.3,30.21,SSE,151,4.0,9.0,67,0.00,,,0.00,meteohub,2013-04-16 18:23:00,
2013-04-16 14:28:00,73.0,59.7,30.21,East,81,6.0,10.0,63,0.00,,,0.00,meteohub,2013-04-16 18:28:00,
2013-04-16 14:33:00,74.3,59.9,30.21,SE,134,4.0,10.0,61,0.00,,,0.00,meteohub,2013-04-16 18:33:00,
2013-04-16 14:38:00,74.7,59.4,30.21,SE,132,2.0,10.0,59,0.00,,,0.00,meteohub,2013-04-16 18:38:00,
2013-04-16 14:43:00,74.1,59.7,30.21,East,85,4.0,6.0,61,0.00,,,0.00,meteohub,2013-04-16 18:43:00,
2013-04-16 14:48:00,75.2,60.4,30.21,ESE,104,3.0,10.0,60,0.00,,,0.00,meteohub,2013-04-16 18:48:00,
2013-04-16 14:53:00,74.7,59.4,30.21,SE,133,4.0,10.0,59,0.00,,,0.00,meteohub,2013-04-16 18:53:00,
2013-04-16 14:58:00,73.6,58.8,30.20,SSW,197,3.0,10.0,60,0.00,,,0.00,meteohub,2013-04-16 18:58:00,
2013-04-16 15:03:00,73.9,59.7,30.20,East,85,4.0,9.0,61,0.00,,,0.00,meteohub,2013-04-16 19:03:00,
2013-04-16 15:08:00,73.9,59.2,30.20,SE,128,5.0,9.0,60,0.00,,,0.00,meteohub,2013-04-16 19:08:00,
2013-04-16 15:13:00,73.2,59.0,30.20,SSE,148,3.0,9.0,61,0.00,,,0.00,meteohub,2013-04-16 19:13:00,
2013-04-16 15:18:00,74.5,59.2,30.19,NE,48,2.0,12.0,59,0.00,,,0.00,meteohub,2013-04-16 19:18:00,
2013-04-16 15:23:00,73.9,58.6,30.19,SSE,152,3.0,12.0,59,0.00,,,0.00,meteohub,2013-04-16 19:23:00,
2013-04-16 15:28:00,73.2,58.5,30.20,South,191,2.0,7.0,60,0.00,,,0.00,meteohub,2013-04-16 19:28:00,
2013-04-16 15:33:00,72.5,58.8,30.19,East,91,1.0,10.0,62,0.00,,,0.00,meteohub,2013-04-16 19:33:00,
2013-04-16 15:38:00,73.2,58.5,30.19,SE,138,4.0,10.0,60,0.00,,,0.00,meteohub,2013-04-16 19:38:00,
2013-04-16 15:43:00,72.5,58.8,30.19,ESE,114,11.0,11.0,62,0.00,,,0.00,meteohub,2013-04-16 19:43:00,
2013-04-16 15:48:00,72.1,58.8,30.19,ESE,107,4.0,11.0,63,0.00,,,0.00,meteohub,2013-04-16 19:48:00,
2013-04-16 15:53:00,72.7,58.8,30.19,ESE,114,5.0,11.0,62,0.00,,,0.00,meteohub,2013-04-16 19:53:00,
2013-04-16 15:58:00,72.3,58.6,30.19,SW,218,1.0,11.0,62,0.00,,,0.00,meteohub,2013-04-16 19:58:00,
2013-04-16 16:03:00,72.7,58.5,30.19,SSW,200,3.0,13.0,61,0.00,,,0.00,meteohub,2013-04-16 20:03:00,
2013-04-16 16:08:00,73.2,58.1,30.18,SSE,150,3.0,13.0,59,0.00,,,0.00,meteohub,2013-04-16 20:08:00,
2013-04-16 16:13:00,73.9,58.3,30.18,SSE,157,4.0,9.0,58,0.00,,,0.00,meteohub,2013-04-16 20:13:00,
2013-04-16 16:18:00,72.9,57.7,30.18,South,174,5.0,9.0,59,0.00,,,0.00,meteohub,2013-04-16 20:18:00,
2013-04-16 16:23:00,73.6,58.3,30.18,South,174,0.0,10.0,59,0.00,,,0.00,meteohub,2013-04-16 20:23:00,
2013-04-16 16:28:00,73.0,57.9,30.18,SSE,150,3.0,10.0,59,0.00,,,0.00,meteohub,2013-04-16 20:28:00,
2013-04-16 16:33:00,72.3,57.7,30.18,SE,133,5.0,10.0,60,0.00,,,0.00,meteohub,2013-04-16 20:33:00,
2013-04-16 16:38:00,71.8,57.6,30.18,SE,124,4.0,11.0,61,0.00,,,0.00,meteohub,2013-04-16 20:38:00,
2013-04-16 16:43:00,71.4,57.7,30.18,SW,236,6.0,11.0,62,0.00,,,0.00,meteohub,2013-04-16 20:43:00,
2013-04-16 16:48:00,70.9,57.7,30.18,SSE,153,3.0,11.0,63,0.00,,,0.00,meteohub,2013-04-16 20:48:00,
2013-04-16 16:54:00,71.1,57.7,30.18,South,174,0.0,11.0,63,0.00,,,0.00,meteohub,2013-04-16 20:54:00,
2013-04-16 16:59:00,70.5,57.4,30.18,SE,125,5.0,8.0,63,0.00,,,0.00,meteohub,2013-04-16 20:59:00,
2013-04-16 17:04:00,70.0,57.2,30.18,East,92,3.0,11.0,64,0.00,,,0.00,meteohub,2013-04-16 21:04:00,
2013-04-16 17:09:00,69.6,57.4,30.17,SE,138,5.0,11.0,65,0.00,,,0.00,meteohub,2013-04-16 21:09:00,
2013-04-16 17:14:00,69.8,57.6,30.17,NW,309,0.0,11.0,65,0.00,,,0.00,meteohub,2013-04-16 21:14:00,
2013-04-16 17:19:00,70.3,58.1,30.17,SSW,204,2.0,8.0,65,0.00,,,0.00,meteohub,2013-04-16 21:19:00,
2013-04-16 17:24:00,70.5,57.7,30.17,SE,144,3.0,8.0,64,0.00,,,0.00,meteohub,2013-04-16 21:24:00,
2013-04-16 17:29:00,70.5,57.4,30.17,SSW,210,1.0,6.0,63,0.00,,,0.00,meteohub,2013-04-16 21:29:00,
2013-04-16 17:34:00,70.2,57.4,30.17,SW,228,2.0,6.0,64,0.00,,,0.00,meteohub,2013-04-16 21:34:00,
2013-04-16 17:39:00,70.3,57.6,30.17,South,176,2.0,6.0,64,0.00,,,0.00,meteohub,2013-04-16 21:39:00,
2013-04-16 17:44:00,70.2,57.4,30.17,SE,134,2.0,6.0,64,0.00,,,0.00,meteohub,2013-04-16 21:44:00,
2013-04-16 17:49:00,70.0,57.2,30.18,SE,136,3.0,7.0,64,0.00,,,0.00,meteohub,2013-04-16 21:49:00,
2013-04-16 17:54:00,70.0,57.7,30.17,NNW,343,1.0,7.0,65,0.00,,,0.00,meteohub,2013-04-16 21:54:00,
2013-04-16 17:59:00,70.7,58.3,30.17,ESE,111,8.0,8.0,65,0.00,,,0.00,meteohub,2013-04-16 21:59:00,
2013-04-16 18:04:00,71.2,57.6,30.17,SSE,149,4.0,9.0,62,0.00,,,0.00,meteohub,2013-04-16 22:04:00,
2013-04-16 18:09:00,71.6,58.3,30.17,ENE,76,0.0,9.0,63,0.00,,,0.00,meteohub,2013-04-16 22:09:00,
2013-04-16 18:14:00,72.3,58.1,30.17,West,273,1.0,10.0,61,0.00,,,0.00,meteohub,2013-04-16 22:14:00,
2013-04-16 18:19:00,72.0,57.7,30.17,West,261,0.0,10.0,61,0.00,,,0.00,meteohub,2013-04-16 22:19:00,
2013-04-16 18:24:00,72.0,57.7,30.17,SE,141,3.0,6.0,61,0.00,,,0.00,meteohub,2013-04-16 22:24:00,
2013-04-16 18:29:00,71.6,57.4,30.17,SSW,207,2.0,6.0,61,0.00,,,0.00,meteohub,2013-04-16 22:29:00,
2013-04-16 18:34:00,71.4,57.7,30.17,SSW,207,1.0,6.0,62,0.00,,,0.00,meteohub,2013-04-16 22:34:00,
2013-04-16 18:39:00,71.8,58.1,30.17,South,188,2.0,6.0,62,0.00,,,0.00,meteohub,2013-04-16 22:39:00,
2013-04-16 18:44:00,72.0,57.7,30.17,WSW,242,0.0,6.0,61,0.00,,,0.00,meteohub,2013-04-16 22:44:00,
2013-04-16 18:49:00,71.6,57.4,30.17,SW,214,0.0,5.0,61,0.00,,,0.00,meteohub,2013-04-16 22:49:00,
2013-04-16 18:54:00,70.7,57.6,30.17,SW,230,0.0,5.0,63,0.00,,,0.00,meteohub,2013-04-16 22:54:00,
2013-04-16 18:59:00,70.0,57.7,30.18,ENE,75,0.0,3.0,65,0.00,,,0.00,meteohub,2013-04-16 22:59:00,
2013-04-16 19:04:00,69.4,57.6,30.17,East,79,0.0,3.0,66,0.00,,,0.00,meteohub,2013-04-16 23:04:00,
2013-04-16 19:09:00,68.9,57.9,30.18,SE,134,0.0,3.0,68,0.00,,,0.00,meteohub,2013-04-16 23:09:00,
2013-04-16 19:14:00,68.4,57.4,30.17,SSE,150,0.0,2.0,68,0.00,,,0.00,meteohub,2013-04-16 23:14:00,
2013-04-16 19:19:00,68.2,58.1,30.17,SSE,165,0.0,2.0,70,0.00,,,0.00,meteohub,2013-04-16 23:19:00,
2013-04-16 19:24:00,67.8,57.7,30.17,ESE,105,0.0,2.0,70,0.00,,,0.00,meteohub,2013-04-16 23:24:00,
2013-04-16 19:29:00,67.6,57.6,30.17,SSE,147,3.0,3.0,70,0.00,,,0.00,meteohub,2013-04-16 23:29:00,
2013-04-16 19:34:00,67.5,57.4,30.17,South,188,4.0,4.0,70,0.00,,,0.00,meteohub,2013-04-16 23:34:00,
2013-04-16 19:39:00,67.3,57.2,30.17,East,97,2.0,4.0,70,0.00,,,0.00,meteohub,2013-04-16 23:39:00,
2013-04-16 19:44:00,67.1,57.0,30.18,ESE,114,0.0,4.0,70,0.00,,,0.00,meteohub,2013-04-16 23:44:00,
2013-04-16 19:49:00,66.9,57.2,30.17,ESE,115,0.0,4.0,71,0.00,,,0.00,meteohub,2013-04-16 23:49:00,
2013-04-16 19:54:00,66.7,57.0,30.17,ESE,122,1.0,4.0,71,0.00,,,0.00,meteohub,2013-04-16 23:54:00,
2013-04-16 19:59:00,66.6,57.2,30.18,SSE,149,0.0,2.0,72,0.00,,,0.00,meteohub,2013-04-16 23:59:00,
2013-04-16 20:04:00,66.4,57.4,30.18,NW,315,0.0,2.0,73,0.00,,,0.00,meteohub,2013-04-17 00:04:00,
2013-04-16 20:09:00,65.8,57.4,30.18,NW,314,0.0,2.0,74,0.00,,,0.00,meteohub,2013-04-17 00:09:00,
2013-04-16 20:14:00,65.5,57.4,30.17,NW,314,0.0,1.0,75,0.00,,,0.00,meteohub,2013-04-17 00:14:00,
2013-04-16 20:20:00,65.1,57.0,30.18,NW,315,0.0,1.0,75,0.00,,,0.00,meteohub,2013-04-17 00:20:00,
2013-04-16 20:25:00,64.9,56.8,30.18,NW,315,0.0,0.0,75,0.00,,,0.00,meteohub,2013-04-17 00:25:00,
2013-04-16 20:30:00,64.9,56.8,30.19,NW,314,0.0,0.0,75,0.00,,,0.00,meteohub,2013-04-17 00:30:00,
2013-04-16 20:35:00,64.9,56.8,30.18,NW,315,0.0,0.0,75,0.00,,,0.00,meteohub,2013-04-17 00:35:00,
2013-04-16 20:40:00,64.9,57.2,30.19,East,85,0.0,0.0,76,0.00,,,0.00,meteohub,2013-04-17 00:40:00,
2013-04-16 20:45:00,64.9,57.2,30.19,East,84,0.0,0.0,76,0.00,,,0.00,meteohub,2013-04-17 00:45:00,
2013-04-16 20:50:00,64.9,57.2,30.19,East,86,0.0,0.0,76,0.00,,,0.00,meteohub,2013-04-17 00:50:00,
2013-04-16 20:55:00,64.8,57.0,30.19,East,91,0.0,0.0,76,0.00,,,0.00,meteohub,2013-04-17 00:55:00,
2013-04-16 21:00:00,64.9,57.6,30.19,ESE,116,0.0,0.0,77,0.00,,,0.00,meteohub,2013-04-17 01:00:00,
2013-04-16 21:05:00,64.8,57.4,30.19,ESE,121,0.0,1.0,77,0.00,,,0.00,meteohub,2013-04-17 01:05:00,
2013-04-16 21:10:00,64.6,57.6,30.19,SE,124,0.0,1.0,78,0.00,,,0.00,meteohub,2013-04-17 01:10:00,
2013-04-16 21:15:00,64.6,57.6,30.19,SE,131,0.0,1.0,78,0.00,,,0.00,meteohub,2013-04-17 01:15:00,
2013-04-16 21:20:00,64.6,57.9,30.19,SE,131,0.0,2.0,79,0.00,,,0.00,meteohub,2013-04-17 01:20:00,
2013-04-16 21:25:00,64.4,57.7,30.20,SE,131,0.0,2.0,79,0.00,,,0.00,meteohub,2013-04-17 01:25:00,
2013-04-16 21:30:00,64.2,57.2,30.20,SE,131,0.0,2.0,78,0.00,,,0.00,meteohub,2013-04-17 01:30:00,
2013-04-16 21:35:00,64.4,57.4,30.20,SE,131,0.0,1.0,78,0.00,,,0.00,meteohub,2013-04-17 01:35:00,
2013-04-16 21:40:00,64.4,57.4,30.20,SE,129,0.0,0.0,78,0.00,,,0.00,meteohub,2013-04-17 01:40:00,
2013-04-16 21:45:00,64.2,57.6,30.20,SE,129,0.0,0.0,79,0.00,,,0.00,meteohub,2013-04-17 01:45:00,
2013-04-16 21:50:00,64.2,57.6,30.20,SE,129,0.0,0.0,79,0.00,,,0.00,meteohub,2013-04-17 01:50:00,
2013-04-16 21:55:00,64.0,58.1,30.20,SE,131,0.0,0.0,81,0.00,,,0.00,meteohub,2013-04-17 01:55:00,
2013-04-16 22:00:00,63.9,57.6,30.20,SE,131,0.0,1.0,80,0.00,,,0.00,meteohub,2013-04-17 02:00:00,
2013-04-16 22:05:00,63.9,57.9,30.20,SE,131,0.0,1.0,81,0.00,,,0.00,meteohub,2013-04-17 02:05:00,
2013-04-16 22:10:00,63.7,57.7,30.20,SE,131,0.0,0.0,81,0.00,,,0.00,meteohub,2013-04-17 02:10:00,
2013-04-16 22:15:00,63.7,57.7,30.21,SE,131,0.0,0.0,81,0.00,,,0.00,meteohub,2013-04-17 02:15:00,
2013-04-16 22:20:00,63.5,57.6,30.21,SE,131,0.0,0.0,81,0.00,,,0.00,meteohub,2013-04-17 02:20:00,
2013-04-16 22:25:00,63.1,57.9,30.21,SE,131,0.0,0.0,83,0.00,,,0.00,meteohub,2013-04-17 02:25:00,
2013-04-16 22:30:00,63.0,58.5,30.21,SE,131,0.0,0.0,85,0.00,,,0.00,meteohub,2013-04-17 02:30:00,
2013-04-16 22:35:00,62.8,57.9,30.21,SE,131,0.0,0.0,84,0.00,,,0.00,meteohub,2013-04-17 02:35:00,
2013-04-16 22:40:00,62.8,57.9,30.21,SE,131,0.0,0.0,84,0.00,,,0.00,meteohub,2013-04-17 02:40:00,
2013-04-16 22:45:00,62.8,57.9,30.21,SE,145,1.0,1.0,84,0.00,,,0.00,meteohub,2013-04-17 02:45:00,
2013-04-16 22:50:00,63.0,57.4,30.21,SE,139,0.0,2.0,82,0.00,,,0.00,meteohub,2013-04-17 02:50:00,
2013-04-16 22:55:00,63.1,57.6,30.21,SE,140,0.0,2.0,82,0.00,,,0.00,meteohub,2013-04-17 02:55:00,
2013-04-16 23:00:00,63.0,57.0,30.21,SE,140,0.0,1.0,81,0.00,,,0.00,meteohub,2013-04-17 03:00:00,
2013-04-16 23:05:00,63.0,57.7,30.20,SE,139,0.0,0.0,83,0.00,,,0.00,meteohub,2013-04-17 03:05:00,
2013-04-16 23:10:00,62.8,57.9,30.20,SE,139,0.0,0.0,84,0.00,,,0.00,meteohub,2013-04-17 03:10:00,
2013-04-16 23:15:00,62.6,58.1,30.20,SE,136,0.0,0.0,85,0.00,,,0.00,meteohub,2013-04-17 03:15:00,
2013-04-16 23:20:00,62.4,58.1,30.20,SE,135,0.0,0.0,86,0.00,,,0.00,meteohub,2013-04-17 03:20:00,
2013-04-16 23:25:00,62.4,58.1,30.19,SE,135,0.0,0.0,86,0.00,,,0.00,meteohub,2013-04-17 03:25:00,
2013-04-16 23:30:00,62.4,58.5,30.19,SE,136,0.0,0.0,87,0.00,,,0.00,meteohub,2013-04-17 03:30:00,
2013-04-16 23:35:00,62.2,57.9,30.19,SE,135,0.0,0.0,86,0.00,,,0.00,meteohub,2013-04-17 03:35:00,
2013-04-16 23:40:00,62.2,58.6,30.19,SE,135,0.0,0.0,88,0.00,,,0.00,meteohub,2013-04-17 03:40:00,
2013-04-16 23:45:00,62.1,58.5,30.19,SE,135,0.0,1.0,88,0.00,,,0.00,meteohub,2013-04-17 03:45:00,
2013-04-16 23:50:00,61.9,58.3,30.19,SE,138,0.0,1.0,88,0.00,,,0.00,meteohub,2013-04-17 03:50:00,
2013-04-16 23:55:00,61.9,58.3,30.19,SE,139,0.0,1.0,88,0.00,,,0.00,meteohub,2013-04-17 03:55:00,